PA85 weather

Drewniany-Springmeadow Airport
Frederick, Pennsylvania, United States

Public forecast

Using degrees Fahrenheit for public forecast. Weather courtesy of forecast.io.

METAR (pilot weather report)

Closest report is Heritage Field, 4.1 nm (7.5 km) SSW. Retrieved 2019/07/20 17:54 UTC (1 hour ago):

KPTW 201754Z AUTO 26005KT 9SM CLR 32/22 A2988 RMK AO2 SLP111 T03220222 10328 20267 58022

TAF (pilot weather forecast)

Closest forecast is Reading Regional Carl A Spaatz Field, 20.2 nm (37.5 km) WNW. Retrieved 2019/07/20 18:27 UTC (32 minutes ago):

TAF KRDG 201724Z 2018/2118 25008KT P6SM SCT080 FM210200 VRB03KT P6SM SCT090 FM211400 28006KT P6SM FEW130 FM211700 27008KT P6SM SCT040